»·PEaware :: SNK5721 KSMX-KBFL

SNK5721 :: KSMX-KBFL

FLIGHT INFORMATION

Flight Status: Arrived
Operator: Unknown
More flights by this operator :: More flights under this callsign
Pilot: Anonymous 8799 (8799)
Aircraft: SOCATA TBM-900
(TBM9)
More flights by this aircraft type
Origin: KSMX Santa Maria Pub/Capt Hancock
United States
Destination: KBFL Meadows
United States
More flights between these airports :: More routes between these airports
Route: +EHF
File this flight plan on PilotEdge
Remarks:
Altitude:
(Current/Filed)
9,000ft
Speed:
(Current/Filed)
220kts
Departed: 26-Jan-19 09:11 AM
Arrived: 26-Jan-19 09:48 AM
Distance/Time
Traveled:
76nm/0:37
Distance/Time
To Go:
Arrived

Flight Plot

Page will automatically refresh every two minutes.


Map Options




Map Legend


Flown Route
Filed Route
Departure Airport
Arrival Airport
Navaid (VOR, NDB)
Fix

Horizontal Profiles

Position Reports

Time Latitude Longitude Heading Altitude Ground
Speed
26-Jan-19 08:51 34.890833 -120.450961 1 264ft 0kts
26-Jan-19 08:52 34.890833 -120.450961 1 264ft 0kts
26-Jan-19 08:53 34.890833 -120.450961 1 264ft 0kts
26-Jan-19 08:54 34.890833 -120.450961 1 264ft 0kts
26-Jan-19 08:55 34.890833 -120.450961 1 264ft 0kts
26-Jan-19 08:56 34.890833 -120.450961 1 264ft 0kts
26-Jan-19 08:57 34.890833 -120.450961 1 264ft 0kts
26-Jan-19 08:58 34.890833 -120.450961 1 264ft 0kts
26-Jan-19 08:59 34.890833 -120.450961 1 264ft 0kts
26-Jan-19 09:00 34.890833 -120.450961 1 264ft 0kts
26-Jan-19 09:01 34.890833 -120.450961 1 264ft 0kts
26-Jan-19 09:02 34.890833 -120.450961 1 264ft 0kts
26-Jan-19 09:03 34.890833 -120.450961 1 264ft 0kts
26-Jan-19 09:04 34.890956 -120.450960 359 264ft 4kts
26-Jan-19 09:05 34.891653 -120.448489 91 264ft 14kts
26-Jan-19 09:06 34.892070 -120.446362 45 264ft 0kts
26-Jan-19 09:07 34.892070 -120.446362 45 264ft 0kts
26-Jan-19 09:08 34.892070 -120.446362 45 264ft 0kts
26-Jan-19 09:09 34.892293 -120.446091 44 264ft 9kts
26-Jan-19 09:10 34.905257 -120.460729 317 494ft 143kts
26-Jan-19 09:11 34.937717 -120.458350 90 2358ft 160kts
26-Jan-19 09:12 34.922115 -120.407860 112 4276ft 162kts
26-Jan-19 09:13 34.904811 -120.355919 112 6074ft 171kts
26-Jan-19 09:14 34.869096 -120.319512 152 8018ft 191kts
26-Jan-19 09:15 34.812795 -120.284498 152 8018ft 246kts
26-Jan-19 09:16 34.809409 -120.218672 50 8196ft 242kts
26-Jan-19 09:17 34.850526 -120.153588 52 8389ft 242kts
26-Jan-19 09:18 34.890895 -120.087403 52 8564ft 244kts
26-Jan-19 09:19 34.931169 -120.021125 52 8715ft 243kts
26-Jan-19 09:20 34.970728 -119.955827 52 9011ft 242kts
26-Jan-19 09:21 35.011359 -119.888757 52 9009ft 247kts
26-Jan-19 09:22 35.052281 -119.821004 52 9006ft 248kts
26-Jan-19 09:23 35.093025 -119.753385 52 9005ft 245kts
26-Jan-19 09:24 35.133615 -119.685971 52 9009ft 245kts
26-Jan-19 09:25 35.173922 -119.618854 52 9009ft 245kts
26-Jan-19 09:26 35.214240 -119.551592 52 9009ft 245kts
26-Jan-19 09:27 35.254315 -119.484597 52 9008ft 243kts
26-Jan-19 09:28 35.294302 -119.417644 52 9008ft 242kts
26-Jan-19 09:29 35.334003 -119.351039 52 9009ft 242kts
26-Jan-19 09:30 35.334501 -119.275556 112 8829ft 246kts
26-Jan-19 09:31 35.307283 -119.201630 112 8009ft 220kts
26-Jan-19 09:32 35.283705 -119.136902 112 7151ft 201kts
26-Jan-19 09:33 35.261808 -119.074798 112 6341ft 197kts
26-Jan-19 09:34 35.240204 -119.012933 112 5374ft 199kts
26-Jan-19 09:35 35.219466 -118.953427 112 4540ft 184kts
26-Jan-19 09:36 35.199351 -118.897016 112 4570ft 180kts
26-Jan-19 09:37 35.181146 -118.839890 79 4588ft 179kts
26-Jan-19 09:38 35.222376 -118.833105 342 4609ft 178kts
26-Jan-19 09:39 35.266164 -118.853397 317 3974ft 138kts
26-Jan-19 09:40 35.297183 -118.891269 316 3114ft 162kts
26-Jan-19 09:41 35.325524 -118.925498 316 3069ft 137kts
26-Jan-19 09:42 35.354046 -118.959967 316 2637ft 145kts
26-Jan-19 09:43 35.377572 -118.988361 316 2182ft 134kts
26-Jan-19 09:44 35.401455 -119.017192 315 1362ft 109kts
26-Jan-19 09:45 35.421970 -119.042019 313 789ft 93kts
26-Jan-19 09:46 35.437065 -119.060099 313 493ft 51kts
26-Jan-19 09:47 35.438775 -119.059887 137 499ft 21kts
26-Jan-19 09:48 35.437796 -119.055594 19 506ft 8kts
26-Jan-19 09:49 35.437843 -119.055724 188 506ft 0kts
26-Jan-19 09:50 35.437843 -119.055724 188 506ft 0kts
26-Jan-19 09:51 35.437843 -119.055724 188 506ft 0kts
26-Jan-19 09:52 35.437843 -119.055724 188 506ft 0kts

Navigation Log

Ident Type
Flight plan parsing failed, navigation log unavailable